Rechercher aéroport 
image banner adimage banner adimage banner ad
image banner ad

1CL2 - Pontious

Situé à Mojave, United States

ICAO - 1CL2, IATA -

Données fournies par Airmate  

Information générale

Coordonnées: N34°56'33" W118°10'11"
Élévation : 2610 feet MSL.
Variation magnétique : 14° East
Voir autres Aéroports à California

Données opérationnelles

Special qualification required
Heure actuelle UTC:
Heure actuelle locale:
Météo à : KMHV - Mojave Air And Space Port ( 13 km )
METAR: KMHV 300140Z AUTO 28016G24KT 10SM CLR 35/09 A2991 RMK A01
Voir NOTAMs / SUP AIP / TFR affectant cet aéroport [VIEW]
Fréquences de communication: [VIEW]

Pistes:

Identifiant RWYQFULongueur (ft)Largeur (ft)SurfaceLDA (ft)
03190050EARTH
21190050EARTH
07130050EARTH
25130050EARTH

Coordonnées de l'aéroport

Adresse: Mojave United States

Vue satellite de 1CL2